This is the latest recevied weather packets stored in our database for station/object OE-11051. If no packets are shown the sender has not sent any weather packets the latest 10 day(s).
| Time | Temp. | Humidity | Pressure | Rain* | Wind** | Luminosity | Snow |
|---|---|---|---|---|---|---|---|
| 1788047707 | 14.44° C | 89% | 1017 hPa | 0 mm | - | 0 W/m² | - |
| 1788046879 | 14.44° C | 89% | 1017 hPa | 0 mm | - | 0 W/m² | - |
| 1788046507 | 14.44° C | 89% | 1016.9 hPa | 0 mm | - | 0 W/m² | - |
| 1788045906 | 14.44° C | 89% | 1016.9 hPa | 0 mm | - | 0 W/m² | - |
| 1788045307 | 14.44° C | 88% | 1016.7 hPa | 0 mm | - | 0 W/m² | - |
| 1788044707 | 14.44° C | 89% | 1016.8 hPa | 0 mm | - | 0 W/m² | - |
| 1788044107 | 14.44° C | 89% | 1016.7 hPa | 0 mm | - | 0 W/m² | - |
| 1788043280 | 14.44° C | 88% | 1016.7 hPa | 0 mm | - | 0 W/m² | - |
| 1788042906 | 15° C | 88% | 1016.7 hPa | 0 mm | - | 0 W/m² | - |
| 1788042306 | 15° C | 88% | 1016.6 hPa | 0 mm | - | 0 W/m² | - |
| 1788041480 | 15.56° C | 88% | 1016.6 hPa | 0 mm | - | 0 W/m² | - |
| 1788041107 | 15.56° C | 88% | 1016.4 hPa | 0 mm | - | 0 W/m² | - |
| 1788040507 | 15.56° C | 86% | 1016.2 hPa | 0 mm | - | 0 W/m² | - |
| 1788039680 | 16.11° C | 85% | 1016.2 hPa | 0 mm | - | 0 W/m² | - |
| 1788039306 | 15.56° C | 86% | 1016.2 hPa | 0 mm | - | 0 W/m² | - |
| 1788038707 | 16.11° C | 86% | 1016.1 hPa | 0 mm | - | 0 W/m² | - |
| 1788037880 | 16.11° C | 85% | 1016.2 hPa | 0 mm | - | 0 W/m² | - |
| 1788037506 | 16.11° C | 84% | 1016.1 hPa | 0 mm | - | 0 W/m² | - |
| 1788036907 | 16.11° C | 84% | 1016.1 hPa | 0 mm | - | 0 W/m² | - |
| 1788036080 | 16.67° C | 82% | 1016.1 hPa | 0 mm | - | 0 W/m² | - |
| 1788035706 | 16.67° C | 81% | 1015.9 hPa | 0 mm | - | 0 W/m² | - |
| 1788035107 | 17.78° C | 78% | 1015.8 hPa | 0 mm | - | 0 W/m² | - |
| 1788034280 | 17.22° C | 79% | 1015.8 hPa | 0 mm | - | 0 W/m² | - |
| 1788033907 | 17.78° C | 77% | 1015.9 hPa | 0 mm | - | 0 W/m² | - |
| 1788033307 | 17.22° C | 79% | 1015.8 hPa | 0 mm | - | 0 W/m² | - |
* Rain latest hour (hover to see other rain measurements)
** Current wind speed in m/s (hover to see current wind gust speed)